Time;durP1;ratioP1;P1;durP2;ratioP2;P2;SDS_P1;SDS_P2;PMS_P1;PMS_P2;Temp;Humidity;BMP_temperature;BMP_pressure;BME280_temperature;BME280_humidity;BME280_pressure;Samples;Min_cycle;Max_cycle;Signal;HPM_P1;HPM_P2
2021/05/14 00:02:00;;;;;;;9.65;6.87;;;;;;;14.03;80.00;99031.17;1676982;84;20961;-73
2021/05/14 00:04:28;;;;;;;9.88;7.10;;;;;;;13.96;80.33;99025.30;1673057;84;21056;-75
2021/05/14 00:06:55;;;;;;;6.42;5.83;;;;;;;13.96;80.46;99034.22;1684144;84;21057;-83
2021/05/14 00:09:21;;;;;;;11.08;6.83;;;;;;;14.00;80.45;99040.42;1672916;84;21025;-73
2021/05/14 00:11:49;;;;;;;10.72;8.93;;;;;;;14.06;80.09;99036.54;1653841;86;21056;-71
2021/05/14 00:14:15;;;;;;;9.95;8.95;;;;;;;14.08;79.70;99033.02;1649234;85;20997;-73
2021/05/14 00:16:42;;;;;;;11.38;10.38;;;;;;;14.06;79.39;99036.00;1645673;86;21027;-71
2021/05/14 00:19:09;;;;;;;10.80;9.75;;;;;;;14.06;79.27;99040.59;1682083;85;21190;-70
2021/05/14 00:21:37;;;;;;;14.70;13.03;;;;;;;14.07;79.10;99032.75;1624310;88;21102;-70
2021/05/14 00:24:05;;;;;;;14.20;12.18;;;;;;;14.10;78.90;99033.55;1602019;87;21060;-69
2021/05/14 00:26:32;;;;;;;12.75;11.55;;;;;;;14.11;78.68;99035.13;1651818;86;21117;-68
2021/05/14 00:28:58;;;;;;;10.93;9.88;;;;;;;14.11;78.58;99036.48;1627099;86;22123;-72
2021/05/14 00:31:24;;;;;;;8.25;7.47;;;;;;;14.12;78.39;99041.61;1660937;85;21105;-68
2021/05/14 00:33:51;;;;;;;7.58;6.72;;;;;;;14.16;78.28;99035.88;1639591;86;20995;-70
2021/05/14 00:36:17;;;;;;;15.68;6.53;;;;;;;14.16;78.20;99031.82;1664598;85;21033;-72
2021/05/14 00:38:44;;;;;;;9.20;6.50;;;;;;;14.18;78.25;99034.25;1655699;86;20978;-71
2021/05/14 00:41:10;;;;;;;7.75;6.60;;;;;;;14.21;78.20;99035.01;1676136;85;21556;-71
2021/05/14 00:43:37;;;;;;;9.08;7.15;;;;;;;14.22;78.08;99034.73;1637732;86;21050;-73
2021/05/14 00:46:03;;;;;;;13.68;7.20;;;;;;;14.21;78.27;99029.59;1680178;85;21553;-73
2021/05/14 00:48:30;;;;;;;6.58;5.97;;;;;;;14.21;78.28;99031.76;1676171;85;21025;-71
2021/05/14 00:50:57;;;;;;;9.48;7.42;;;;;;;14.22;78.15;99029.86;1658516;85;21061;-71
2021/05/14 00:53:23;;;;;;;10.15;6.80;;;;;;;14.17;78.10;99029.38;1634997;86;21039;-73
2021/05/14 00:55:50;;;;;;;7.45;6.33;;;;;;;14.15;78.34;99030.78;1684232;85;21681;-71
2021/05/14 00:58:16;;;;;;;7.62;6.83;;;;;;;14.10;78.61;99028.14;1618644;86;21128;-72
2021/05/14 01:00:42;;;;;;;8.15;7.37;;;;;;;14.04;78.82;99027.39;1672886;85;21025;-73
2021/05/14 01:03:14;;;;;;;12.25;8.33;;;;;;;14.06;78.86;99029.23;1629992;86;21113;-71
2021/05/14 01:05:38;;;;;;;10.48;8.28;;;;;;;14.05;78.98;99033.60;1685644;85;21010;-69
2021/05/14 01:08:05;;;;;;;7.95;7.03;;;;;;;14.04;79.30;99026.03;1621208;86;21027;-69
2021/05/14 01:10:32;;;;;;;9.40;7.12;;;;;;;14.03;79.41;99029.02;1671443;84;20995;-69
2021/05/14 01:12:59;;;;;;;8.03;7.17;;;;;;;14.03;79.30;99024.95;1676697;84;21046;-70
2021/05/14 01:15:25;;;;;;;10.80;9.70;;;;;;;14.04;79.17;99023.33;1628453;86;21118;-70
2021/05/14 01:17:51;;;;;;;11.28;10.13;;;;;;;14.00;79.04;99030.41;1672345;85;21013;-68
2021/05/14 01:20:19;;;;;;;10.58;9.25;;;;;;;14.02;79.10;99028.20;1668743;85;20989;-69
2021/05/14 01:22:45;;;;;;;13.93;10.10;;;;;;;14.06;78.77;99025.72;1686210;85;21058;-66
2021/05/14 01:25:13;;;;;;;16.93;8.40;;;;;;;14.07;78.53;99021.93;1661475;85;21050;-69
2021/05/14 01:27:39;;;;;;;10.18;8.20;;;;;;;14.06;78.36;99021.12;1671760;85;21050;-68
2021/05/14 01:30:08;;;;;;;12.05;8.50;;;;;;;14.06;78.30;99018.97;1630011;87;21577;-67
2021/05/14 01:32:34;;;;;;;10.30;9.23;;;;;;;14.08;78.22;99016.79;1654906;85;21154;-67
2021/05/14 01:35:01;;;;;;;9.65;7.30;;;;;;;14.13;77.95;99018.08;1641516;86;21062;-68
2021/05/14 01:37:27;;;;;;;11.10;8.48;;;;;;;14.17;77.72;99021.81;1662241;85;21394;-70
2021/05/14 01:39:54;;;;;;;10.25;8.93;;;;;;;14.16;77.57;99020.20;1641178;86;21539;-69
2021/05/14 01:42:20;;;;;;;12.23;10.25;;;;;;;14.11;77.54;99016.20;1662284;85;20998;-67
2021/05/14 01:44:46;;;;;;;9.05;8.15;;;;;;;14.06;77.69;99024.38;1593741;87;21137;-68
2021/05/14 01:47:17;;;;;;;9.63;8.50;;;;;;;13.97;77.86;99020.96;1678094;85;21081;-68
2021/05/14 01:49:44;;;;;;;13.30;10.18;;;;;;;13.95;77.93;99012.89;1660747;85;21121;-68
2021/05/14 01:52:11;;;;;;;13.10;9.43;;;;;;;13.97;77.85;99017.45;1657974;85;21618;-68
2021/05/14 01:54:38;;;;;;;11.45;8.68;;;;;;;14.00;77.65;99014.19;1654885;85;21044;-70
2021/05/14 01:57:05;;;;;;;11.60;7.97;;;;;;;14.01;77.48;99013.07;1655238;85;21573;-69
2021/05/14 01:59:32;;;;;;;13.62;9.25;;;;;;;14.01;77.26;99016.32;1645645;85;21187;-69
2021/05/14 02:01:58;;;;;;;9.25;8.35;;;;;;;13.99;77.18;99013.92;1656338;85;21228;-68
2021/05/14 02:04:25;;;;;;;10.63;9.40;;;;;;;14.01;77.00;99009.56;1650312;85;20986;-68
2021/05/14 02:06:51;;;;;;;8.45;7.55;;;;;;;14.05;76.82;99010.62;1645598;85;21022;-69
2021/05/14 02:09:19;;;;;;;7.62;6.85;;;;;;;14.09;76.45;99011.10;1655992;85;21586;-68
2021/05/14 02:11:45;;;;;;;10.35;8.98;;;;;;;14.07;76.23;99005.70;1654669;85;21030;-69
2021/05/14 02:14:12;;;;;;;9.30;8.13;;;;;;;14.04;76.16;99009.00;1656898;85;21057;-69
2021/05/14 02:16:38;;;;;;;10.93;8.90;;;;;;;14.03;75.97;99006.84;1656027;85;21068;-69
2021/05/14 02:19:05;;;;;;;12.93;10.15;;;;;;;14.03;75.88;99000.63;1662658;85;21570;-69
2021/05/14 02:21:32;;;;;;;11.05;9.78;;;;;;;13.97;75.96;99006.09;1646955;85;21118;-68
2021/05/14 02:23:58;;;;;;;11.18;9.35;;;;;;;13.97;76.00;99013.39;1639199;87;21077;-69
2021/05/14 02:26:25;;;;;;;16.97;9.28;;;;;;;13.94;75.92;99008.03;1634724;86;21685;-69
2021/05/14 02:28:52;;;;;;;9.85;7.42;;;;;;;13.92;75.87;99012.91;1649563;85;21006;-77
2021/05/14 02:31:19;;;;;;;10.20;9.20;;;;;;;13.91;75.78;99009.13;1660983;85;20978;-70
2021/05/14 02:33:45;;;;;;;11.10;9.83;;;;;;;13.86;75.91;99001.89;1653902;86;21129;-69
2021/05/14 02:36:11;;;;;;;9.53;8.63;;;;;;;13.85;76.00;99000.30;1654470;85;21086;-69
2021/05/14 02:38:38;;;;;;;17.20;10.75;;;;;;;13.89;75.97;99014.84;1649831;85;21057;-67
2021/05/14 02:41:09;;;;;;;16.77;12.70;;;;;;;13.89;75.91;99008.63;1664612;85;21022;-69
2021/05/14 02:43:34;;;;;;;13.45;12.05;;;;;;;13.88;75.98;99011.07;1643895;86;21058;-67
2021/05/14 02:46:00;;;;;;;15.58;13.03;;;;;;;13.85;76.14;99013.01;1646200;85;20974;-67
2021/05/14 02:48:27;;;;;;;13.72;11.75;;;;;;;13.78;76.36;99007.94;1666853;85;21076;-72
2021/05/14 02:50:53;;;;;;;21.15;13.95;;;;;;;13.76;76.46;99007.44;1628979;86;21111;-68
2021/05/14 02:53:19;;;;;;;17.00;11.45;;;;;;;13.80;76.41;99007.66;1672794;85;21078;-68
2021/05/14 02:55:46;;;;;;;14.18;12.65;;;;;;;13.81;76.26;99004.65;1632339;85;21030;-66
2021/05/14 02:58:13;;;;;;;13.83;9.55;;;;;;;13.80;76.35;99007.11;1646309;87;20960;-67
2021/05/14 03:00:40;;;;;;;13.80;11.30;;;;;;;13.78;76.30;98994.97;1642610;86;21013;-69
2021/05/14 03:03:07;;;;;;;10.18;8.50;;;;;;;13.76;76.28;98997.17;1643121;86;21111;-71
2021/05/14 03:05:33;;;;;;;13.28;9.43;;;;;;;13.78;76.24;98998.48;1675495;85;20962;-67
2021/05/14 03:07:59;;;;;;;13.40;10.18;;;;;;;13.83;76.07;98997.61;1631316;86;21527;-69
2021/05/14 03:10:26;;;;;;;13.65;10.35;;;;;;;13.84;75.91;98996.52;1660518;86;21039;-67
2021/05/14 03:12:52;;;;;;;11.63;9.30;;;;;;;13.83;75.90;98999.77;1655219;86;21037;-66
2021/05/14 03:15:19;;;;;;;12.80;9.48;;;;;;;13.82;75.85;98996.80;1649700;86;21774;-69
2021/05/14 03:17:46;;;;;;;14.53;10.82;;;;;;;13.82;75.68;98994.64;1647851;86;21025;-67
2021/05/14 03:20:14;;;;;;;18.48;9.53;;;;;;;13.79;75.50;98999.28;1668294;85;21105;-67
2021/05/14 03:22:40;;;;;;;9.80;8.08;;;;;;;13.76;75.45;98993.11;1667682;84;21863;-66
2021/05/14 03:25:10;;;;;;;10.50;8.08;;;;;;;13.79;75.22;98987.93;1644503;86;21012;-68
2021/05/14 03:27:37;;;;;;;15.68;10.15;;;;;;;13.80;74.97;98994.14;1678396;85;21658;-71
2021/05/14 03:30:06;;;;;;;13.80;9.35;;;;;;;13.80;74.73;98988.20;1642452;86;21006;-70
2021/05/14 03:32:32;;;;;;;13.95;9.83;;;;;;;13.81;74.64;98994.41;1684302;85;21077;-71
2021/05/14 03:34:59;;;;;;;14.03;10.03;;;;;;;13.79;74.54;98992.53;1654351;86;21126;-66
2021/05/14 03:37:25;;;;;;;11.20;7.67;;;;;;;13.75;74.30;98995.01;1648594;86;21101;-69
2021/05/14 03:39:56;;;;;;;10.08;8.25;;;;;;;13.73;74.25;98992.31;1617859;87;21621;-70
2021/05/14 03:42:25;;;;;;;10.50;6.95;;;;;;;13.74;74.26;98996.09;1616994;86;21003;-69
2021/05/14 03:44:52;;;;;;;8.63;7.75;;;;;;;13.78;73.93;98996.31;1666989;85;21066;-67
2021/05/14 03:47:21;;;;;;;16.97;9.53;;;;;;;13.81;73.79;98991.13;1629459;86;21132;-70
2021/05/14 03:49:47;;;;;;;11.08;8.93;;;;;;;13.88;73.46;98995.66;1668932;86;21042;-72
2021/05/14 03:52:14;;;;;;;8.88;7.97;;;;;;;13.94;73.12;98993.70;1665637;86;21582;-68
2021/05/14 03:54:41;;;;;;;7.47;6.78;;;;;;;13.95;73.01;98994.78;1668924;84;21065;-69
2021/05/14 03:57:08;;;;;;;8.78;7.87;;;;;;;13.96;72.54;98997.72;1661799;85;21002;-69
2021/05/14 03:59:35;;;;;;;7.58;6.47;;;;;;;14.00;72.58;98997.16;1648667;85;21105;-68
2021/05/14 04:02:01;;;;;;;7.58;6.80;;;;;;;14.01;72.60;98996.85;1643370;85;21089;-68
2021/05/14 04:04:28;;;;;;;10.35;7.78;;;;;;;14.05;72.32;98999.80;1647736;85;21106;-70
2021/05/14 04:06:55;;;;;;;7.80;6.20;;;;;;;14.09;72.31;98994.87;1671670;85;21058;-67
2021/05/14 04:09:32;;;;;;;10.10;9.08;;;;;;;14.17;72.03;98996.13;1660684;85;20950;-68
2021/05/14 04:14:30;;;;;;;8.70;7.72;;;;;;;14.25;71.61;98995.47;1635026;86;20991;-68
2021/05/14 04:17:02;;;;;;;9.40;8.23;;;;;;;14.25;71.43;98989.51;1647365;85;21136;-67
2021/05/14 04:19:29;;;;;;;8.20;7.40;;;;;;;14.23;71.52;98992.27;1658334;85;21037;-69
2021/05/14 04:21:57;;;;;;;9.48;8.55;;;;;;;14.23;71.71;98990.91;1645379;87;20968;-66
2021/05/14 04:24:25;;;;;;;9.90;6.17;;;;;;;14.24;71.84;98990.62;1659403;86;21046;-69
2021/05/14 04:26:55;;;;;;;8.25;7.25;;;;;;;14.26;71.88;98988.42;1672838;85;21570;-67
2021/05/14 04:29:22;;;;;;;7.78;6.97;;;;;;;14.30;71.87;98989.45;1659515;86;21772;-69
2021/05/14 04:31:50;;;;;;;9.80;7.95;;;;;;;14.31;71.79;98985.66;1670979;85;21002;-68
2021/05/14 04:34:19;;;;;;;9.63;8.35;;;;;;;14.35;71.73;98985.86;1646764;87;20939;-68
2021/05/14 04:36:47;;;;;;;16.85;10.23;;;;;;;14.39;71.64;98979.61;1659472;86;21102;-70
2021/05/14 04:39:13;;;;;;;19.57;8.75;;;;;;;14.43;71.54;98979.85;1645707;85;21083;-68
2021/05/14 04:41:40;;;;;;;13.38;8.20;;;;;;;14.47;71.42;98979.52;1617676;88;21745;-70
2021/05/14 04:44:08;;;;;;;12.47;9.23;;;;;;;14.52;71.45;98970.52;1645211;87;21377;-68
2021/05/14 04:46:34;;;;;;;13.83;8.48;;;;;;;14.54;71.36;98969.66;1632973;87;22078;-68
2021/05/14 04:49:01;;;;;;;23.65;8.78;;;;;;;14.54;71.44;98963.70;1645383;87;21211;-67
2021/05/14 04:51:28;;;;;;;11.25;7.58;;;;;;;14.60;71.35;98964.44;1633680;86;21086;-69
2021/05/14 04:53:55;;;;;;;11.85;7.35;;;;;;;14.67;71.21;98964.34;1646875;85;21752;-68
2021/05/14 04:56:22;;;;;;;10.10;7.08;;;;;;;14.76;71.10;98963.12;1627636;87;20951;-67
2021/05/14 04:58:48;;;;;;;12.70;7.85;;;;;;;14.83;71.02;98964.34;1617554;88;21042;-69
2021/05/14 05:01:16;;;;;;;12.73;7.67;;;;;;;14.91;70.85;98962.07;1645541;87;21047;-68
2021/05/14 05:03:48;;;;;;;13.55;8.13;;;;;;;14.95;70.43;98962.53;1609483;87;21070;-66
2021/05/14 05:06:15;;;;;;;8.40;7.08;;;;;;;14.98;70.28;98963.29;1615392;87;21109;-68
2021/05/14 05:08:41;;;;;;;11.50;7.45;;;;;;;15.02;70.13;98958.08;1660410;86;21099;-67
2021/05/14 05:11:08;;;;;;;12.18;6.78;;;;;;;15.06;70.02;98959.89;1627788;86;21582;-68
2021/05/14 05:13:34;;;;;;;8.23;6.62;;;;;;;15.13;69.77;98955.45;1684427;85;21183;-67
2021/05/14 05:16:02;;;;;;;16.25;8.23;;;;;;;15.16;69.60;98960.27;1656708;86;21642;-67
2021/05/14 05:18:29;;;;;;;11.40;8.10;;;;;;;15.19;69.62;98961.85;1662767;85;21316;-67
2021/05/14 05:20:55;;;;;;;10.20;6.75;;;;;;;15.23;69.58;98965.57;1654736;86;21382;-68
2021/05/14 05:23:22;;;;;;;13.15;7.12;;;;;;;15.29;69.36;98952.74;1688038;85;21042;-67
2021/05/14 05:25:48;;;;;;;12.93;7.78;;;;;;;15.37;69.16;98947.98;1685255;84;21578;-66
2021/05/14 05:28:29;;;;;;;11.40;8.23;;;;;;;15.45;69.04;98955.41;1685504;85;21111;-68
2021/05/14 05:30:56;;;;;;;8.15;7.00;;;;;;;15.55;68.81;98949.83;1645257;86;21111;-67
2021/05/14 05:33:22;;;;;;;7.95;6.85;;;;;;;15.64;68.16;98943.15;1688115;85;21673;-67
2021/05/14 05:35:49;;;;;;;7.78;6.60;;;;;;;15.74;67.77;98940.23;1640962;86;21619;-67
2021/05/14 05:38:20;;;;;;;7.95;7.15;;;;;;;15.84;67.56;98937.88;1674360;85;21645;-68
2021/05/14 05:40:47;;;;;;;8.13;6.78;;;;;;;15.92;67.13;98937.96;1654211;86;21081;-68
2021/05/14 05:43:14;;;;;;;13.93;7.83;;;;;;;15.98;66.49;98934.05;1687921;85;21602;-70
2021/05/14 05:45:41;;;;;;;6.72;5.85;;;;;;;16.05;66.40;98940.42;1655611;86;21609;-68
2021/05/14 05:48:09;;;;;;;5.83;5.25;;;;;;;16.12;65.98;98932.11;1688717;84;20986;-68
2021/05/14 05:50:37;;;;;;;8.35;6.53;;;;;;;16.21;65.88;98932.19;1688727;85;21010;-71
2021/05/14 05:53:04;;;;;;;8.48;6.50;;;;;;;16.27;65.37;98930.98;1688610;85;21048;-67
2021/05/14 05:55:30;;;;;;;8.13;5.72;;;;;;;16.35;65.21;98936.25;1662444;85;22317;-70
2021/05/14 05:58:09;;;;;;;12.35;5.40;;;;;;;16.45;64.72;98942.22;1669107;84;21569;-69
2021/05/14 06:00:35;;;;;;;6.72;4.65;;;;;;;16.54;64.16;98938.25;1629889;88;21054;-67
2021/05/14 06:03:02;;;;;;;10.25;5.95;;;;;;;16.63;63.88;98923.41;1660358;86;21001;-68
2021/05/14 06:05:30;;;;;;;8.93;5.28;;;;;;;16.72;63.82;98925.08;1605641;88;21613;-70
2021/05/14 06:07:56;;;;;;;6.87;4.80;;;;;;;16.80;63.46;98931.12;1635270;86;21128;-69
2021/05/14 06:10:23;;;;;;;5.20;4.55;;;;;;;16.88;63.43;98923.58;1605966;86;21602;-67
2021/05/14 06:12:50;;;;;;;8.55;5.47;;;;;;;16.95;63.16;98916.36;1660304;86;21033;-67
2021/05/14 06:15:17;;;;;;;5.87;5.28;;;;;;;16.99;62.94;98918.14;1622820;86;21936;-68
2021/05/14 06:17:43;;;;;;;7.17;5.12;;;;;;;17.05;62.98;98915.30;1687482;85;21063;-66
2021/05/14 06:20:16;;;;;;;7.97;4.50;;;;;;;17.11;62.86;98916.23;1654315;86;21034;-67
2021/05/14 06:22:42;;;;;;;6.42;5.12;;;;;;;17.15;62.58;98909.05;1687865;85;21628;-67
2021/05/14 06:25:10;;;;;;;9.30;5.75;;;;;;;17.22;62.70;98907.22;1662315;85;21073;-68
2021/05/14 06:27:36;;;;;;;7.95;5.37;;;;;;;17.28;62.73;98896.47;1688152;84;21097;-69
2021/05/14 06:30:05;;;;;;;9.43;4.75;;;;;;;17.34;62.17;98893.87;1656835;86;21054;-70
2021/05/14 06:32:33;;;;;;;8.43;6.03;;;;;;;17.40;62.01;98900.78;1687764;85;21608;-67
2021/05/14 06:34:59;;;;;;;8.18;5.92;;;;;;;17.44;61.67;98899.83;1646174;86;21621;-68
2021/05/14 06:37:26;;;;;;;9.65;5.37;;;;;;;17.43;60.93;98906.38;1666968;85;21604;-66
2021/05/14 06:39:53;;;;;;;6.08;5.17;;;;;;;17.40;60.98;98905.66;1654263;86;21086;-68
2021/05/14 06:42:20;;;;;;;5.92;5.25;;;;;;;17.40;60.98;98898.06;1640352;85;21706;-69
2021/05/14 06:44:47;;;;;;;10.10;4.95;;;;;;;17.41;60.85;98903.16;1632177;86;21897;-68
2021/05/14 06:47:14;;;;;;;4.83;4.08;;;;;;;17.42;60.78;98896.62;1688123;85;21051;-66
2021/05/14 06:49:40;;;;;;;6.83;4.78;;;;;;;17.42;60.87;98896.62;1656675;86;21026;-67
2021/05/14 06:52:07;;;;;;;7.75;5.60;;;;;;;17.43;61.16;98894.70;1688077;85;21078;-67
2021/05/14 06:54:34;;;;;;;5.10;4.60;;;;;;;17.45;61.40;98891.13;1654148;86;21078;-68
2021/05/14 06:57:02;;;;;;;7.92;5.35;;;;;;;17.51;61.73;98890.40;1659980;85;21736;-68
2021/05/14 06:59:28;;;;;;;7.33;4.35;;;;;;;17.57;61.73;98891.87;1654658;86;21554;-67
2021/05/14 07:01:55;;;;;;;8.68;5.58;;;;;;;17.63;61.58;98890.09;1688023;85;21070;-68
2021/05/14 07:04:21;;;;;;;8.00;4.85;;;;;;;17.69;61.46;98882.59;1656342;86;21594;-78
2021/05/14 07:06:49;;;;;;;5.90;4.37;;;;;;;17.77;61.44;98881.80;1652428;86;20982;-68
2021/05/14 07:09:17;;;;;;;7.47;4.87;;;;;;;17.85;61.25;98880.45;1652506;86;21074;-67
2021/05/14 07:11:44;;;;;;;5.97;4.53;;;;;;;17.97;61.10;98876.32;1652201;86;21118;-66
2021/05/14 07:14:10;;;;;;;5.75;4.42;;;;;;;18.06;60.85;98879.30;1652415;86;21645;-67
2021/05/14 07:16:37;;;;;;;18.85;3.20;;;;;;;18.15;59.22;98873.86;1636018;86;21072;-66
2021/05/14 07:19:03;;;;;;;9.35;4.35;;;;;;;18.21;58.36;98870.66;1651481;86;21037;-68
2021/05/14 07:21:31;;;;;;;10.68;4.08;;;;;;;18.28;58.17;98856.56;1619983;87;21163;-68
2021/05/14 07:23:58;;;;;;;5.75;4.15;;;;;;;18.36;58.04;98857.14;1620050;87;21637;-69
2021/05/14 07:26:27;;;;;;;5.53;4.00;;;;;;;18.43;57.93;98860.16;1642795;87;21001;-70
2021/05/14 07:28:54;;;;;;;9.25;6.05;;;;;;;18.49;57.70;98859.44;1642850;87;21025;-66
2021/05/14 07:31:24;;;;;;;7.12;5.33;;;;;;;18.54;57.41;98864.20;1619905;87;21621;-70
2021/05/14 07:33:51;;;;;;;6.30;4.33;;;;;;;18.57;57.12;98865.45;1623214;86;21021;-70
2021/05/14 07:36:17;;;;;;;6.42;4.08;;;;;;;18.62;56.06;98858.48;1669660;85;21034;-67
2021/05/14 07:38:43;;;;;;;5.30;3.65;;;;;;;18.66;55.68;98856.71;1652050;85;21099;-68
2021/05/14 07:41:11;;;;;;;4.55;3.98;;;;;;;18.71;55.82;98865.52;1654602;85;21062;-67
2021/05/14 07:43:37;;;;;;;4.28;3.87;;;;;;;18.78;55.62;98863.67;1620202;87;22405;-67
2021/05/14 07:46:04;;;;;;;5.92;3.80;;;;;;;18.84;55.29;98858.86;1642908;87;20993;-68
2021/05/14 07:48:31;;;;;;;17.77;5.03;;;;;;;18.90;55.09;98855.62;1620103;87;21586;-68
2021/05/14 07:50:58;;;;;;;5.85;3.83;;;;;;;19.00;55.02;98859.36;1643022;87;21073;-68
2021/05/14 07:53:24;;;;;;;5.35;4.08;;;;;;;19.09;54.45;98856.59;1643007;85;21105;-69
2021/05/14 07:55:50;;;;;;;11.10;3.65;;;;;;;19.20;54.14;98852.95;1658818;85;21013;-67
2021/05/14 07:58:17;;;;;;;3.35;2.77;;;;;;;19.28;53.78;98852.92;1669514;85;21815;-68
2021/05/14 08:00:45;;;;;;;11.05;3.27;;;;;;;19.35;53.46;98839.59;1668144;85;21025;-66
2021/05/14 08:03:12;;;;;;;7.83;4.08;;;;;;;19.42;53.30;98851.36;1670040;85;21022;-69
2021/05/14 08:05:38;;;;;;;5.95;3.70;;;;;;;19.48;53.36;98853.58;1646195;86;21070;-67
2021/05/14 08:08:12;;;;;;;6.08;4.05;;;;;;;19.54;53.21;98848.19;1668740;85;21589;-68
2021/05/14 08:10:39;;;;;;;5.15;3.52;;;;;;;19.59;53.54;98853.45;1668706;86;21135;-68
2021/05/14 08:13:05;;;;;;;4.10;3.62;;;;;;;19.66;53.59;98850.78;1668563;85;21006;-67
2021/05/14 08:15:32;;;;;;;4.30;3.70;;;;;;;19.73;53.22;98843.66;1668726;85;21089;-66
2021/05/14 08:17:59;;;;;;;5.53;3.65;;;;;;;19.83;52.35;98849.30;1661534;85;21021;-67
2021/05/14 08:20:26;;;;;;;4.05;2.95;;;;;;;19.90;51.77;98846.86;1647278;85;21541;-69
2021/05/14 08:22:53;;;;;;;6.03;3.25;;;;;;;20.00;50.97;98845.07;1620000;87;21048;-67
2021/05/14 08:25:20;;;;;;;4.25;2.62;;;;;;;20.08;50.75;98843.42;1642655;87;21585;-68
2021/05/14 08:27:46;;;;;;;3.37;2.85;;;;;;;20.11;50.91;98842.19;1651851;85;21096;-67
2021/05/14 08:30:14;;;;;;;9.20;3.62;;;;;;;20.19;50.85;98841.91;1646436;85;21073;-68
2021/05/14 08:32:41;;;;;;;5.33;3.12;;;;;;;20.27;50.79;98841.02;1646614;85;21073;-67
2021/05/14 08:35:09;;;;;;;3.25;2.72;;;;;;;20.31;50.53;98846.08;1670054;85;21106;-66
2021/05/14 08:37:36;;;;;;;3.20;2.72;;;;;;;20.33;50.40;98841.09;1662236;85;20997;-68
2021/05/14 08:40:07;;;;;;;5.47;3.47;;;;;;;20.34;50.44;98846.20;1642811;87;21113;-67
2021/05/14 08:42:42;;;;;;;4.08;2.92;;;;;;;20.41;50.47;98843.73;1642651;87;21002;-67
2021/05/14 08:45:13;;;;;;;5.83;3.37;;;;;;;20.44;50.52;98847.16;1644017;87;21081;-67
2021/05/14 08:47:41;;;;;;;4.12;2.77;;;;;;;20.43;50.57;98843.41;1644727;85;21106;-68
2021/05/14 08:50:10;;;;;;;9.45;3.83;;;;;;;20.39;48.98;98848.73;1644453;87;20958;-68
2021/05/14 08:52:39;;;;;;;2.42;2.05;;;;;;;20.36;49.16;98852.14;1642808;87;21069;-70
2021/05/14 08:55:07;;;;;;;2.90;2.58;;;;;;;20.30;48.66;98855.36;1642803;87;21637;-66
2021/05/14 08:57:33;;;;;;;8.80;2.25;;;;;;;20.27;48.64;98858.21;1644734;85;21049;-66
2021/05/14 08:59:59;;;;;;;4.58;3.40;;;;;;;20.27;48.75;98856.05;1648852;85;21271;-67
2021/05/14 09:02:26;;;;;;;3.47;2.65;;;;;;;20.25;48.35;98852.27;1619872;87;21045;-66
2021/05/14 09:04:52;;;;;;;9.68;3.33;;;;;;;20.25;48.46;98855.00;1662497;85;21077;-66
2021/05/14 09:07:19;;;;;;;12.53;3.10;;;;;;;20.32;48.45;98855.31;1670005;85;21135;-68
2021/05/14 09:10:09;;;;;;;4.00;3.08;;;;;;;20.41;48.49;98862.86;1667671;85;21030;-67
2021/05/14 09:12:39;;;;;;;4.53;3.30;;;;;;;20.47;48.72;98872.22;1646593;85;21033;-67
2021/05/14 09:15:25;;;;;;;9.60;3.85;;;;;;;20.51;48.70;98858.92;1670063;85;20966;-68
2021/05/14 09:18:10;;;;;;;7.65;4.00;;;;;;;20.52;48.77;98859.72;1654926;85;21088;-68
2021/05/14 09:20:55;;;;;;;4.15;2.80;;;;;;;20.56;49.08;98853.81;1631368;85;21133;-69
2021/05/14 09:23:37;;;;;;;9.45;3.17;;;;;;;20.61;48.04;98856.34;1669561;85;21081;-67
2021/05/14 09:26:13;;;;;;;4.62;2.95;;;;;;;20.64;47.77;98851.55;1646562;85;21003;-68
2021/05/14 09:28:48;;;;;;;6.42;3.75;;;;;;;20.66;47.50;98863.76;1661356;85;21010;-68
2021/05/14 09:31:23;;;;;;;6.37;3.17;;;;;;;20.63;47.59;98854.05;1642559;86;21001;-67
2021/05/14 09:33:53;;;;;;;5.60;3.37;;;;;;;20.52;48.89;98865.98;1620046;87;21118;-69
2021/05/14 09:36:23;;;;;;;8.75;4.25;;;;;;;20.52;48.89;98865.98;1642758;87;21067;-68
2021/05/14 09:39:02;;;;;;;9.60;3.20;;;;;;;20.46;48.95;98870.05;1664031;85;21061;-67
2021/05/14 09:41:45;;;;;;;4.80;3.25;;;;;;;20.35;49.50;98866.12;1669436;85;21018;-67
2021/05/14 09:44:15;;;;;;;;;;;;;;;20.14;49.85;98866.67;1672339;85;20990;-70
2021/05/14 09:46:48;;;;;;;7.17;3.10;;;;;;;20.05;50.06;98863.98;1667608;85;20248;-70
2021/05/14 09:49:18;;;;;;;8.25;3.00;;;;;;;19.85;50.58;98853.88;1669558;85;21015;-67
2021/05/14 09:52:03;;;;;;;3.40;3.10;;;;;;;19.85;50.58;98853.88;1646404;85;21215;-68
2021/05/14 09:54:39;;;;;;;3.85;3.02;;;;;;;19.75;50.34;98846.06;1646369;85;21034;-66
2021/05/14 09:59:50;;;;;;;4.12;2.58;;;;;;;19.54;48.69;98841.92;1670020;85;21002;-67
2021/05/14 10:02:24;;;;;;;2.20;2.00;;;;;;;19.44;49.08;98845.02;1648934;85;21077;-66
2021/05/14 10:04:51;;;;;;;3.05;2.45;;;;;;;19.36;48.92;98844.48;1648922;85;21592;-67
2021/05/14 10:07:19;;;;;;;5.00;2.25;;;;;;;19.31;48.24;98842.73;1655776;85;21510;-69
2021/05/14 10:09:50;;;;;;;3.12;2.62;;;;;;;19.30;48.22;98847.14;1669345;85;21053;-65
2021/05/14 10:12:18;;;;;;;8.08;2.92;;;;;;;19.31;48.03;98844.10;1655336;85;21065;-68
2021/05/14 10:14:46;;;;;;;5.17;3.77;;;;;;;19.30;49.05;98849.31;1649874;85;20958;-70
2021/05/14 10:17:13;;;;;;;6.37;3.60;;;;;;;19.21;51.33;98854.56;1631053;86;21689;-67
2021/05/14 10:19:40;;;;;;;4.60;3.50;;;;;;;19.04;52.11;98856.22;1619707;87;21105;-69
2021/05/14 10:22:07;;;;;;;4.97;3.33;;;;;;;18.92;52.83;98879.83;1653890;85;21129;-69
2021/05/14 10:24:50;;;;;;;5.42;3.15;;;;;;;18.86;53.39;98871.58;1669721;85;21077;-68
2021/05/14 10:27:25;;;;;;;3.40;2.92;;;;;;;18.85;54.51;98869.41;1667461;85;21105;-70
2021/05/14 10:29:54;;;;;;;8.68;2.85;;;;;;;18.77;55.27;98874.33;1646646;85;21767;-69
2021/05/14 10:32:47;;;;;;;6.33;3.52;;;;;;;18.77;56.15;98865.35;1656226;85;21001;-67
2021/05/14 10:35:28;;;;;;;;;;;;;;;18.77;56.72;98872.96;1664496;85;21108;-70
2021/05/14 10:38:06;;;;;;;2.83;2.62;;;;;;;18.69;59.23;98867.78;1646423;85;20271;-70
2021/05/14 10:40:38;;;;;;;5.03;3.62;;;;;;;18.64;59.92;98857.61;1669815;85;21601;-73
2021/05/14 10:43:07;;;;;;;4.30;3.90;;;;;;;18.72;60.24;98859.52;1668993;85;21641;-71
2021/05/14 10:46:04;;;;;;;7.10;4.58;;;;;;;18.79;61.27;98853.58;1669086;85;21658;-71
2021/05/14 10:48:30;;;;;;;10.98;4.85;;;;;;;18.83;61.31;98853.97;1669728;85;21574;-68
2021/05/14 10:51:01;;;;;;;7.92;6.17;;;;;;;18.91;61.28;98848.25;1643575;85;21037;-72
2021/05/14 10:53:36;;;;;;;7.55;3.77;;;;;;;18.95;61.51;98843.74;1620190;87;21090;-67
2021/05/14 10:56:15;;;;;;;8.50;4.80;;;;;;;18.96;60.46;98855.69;1619818;87;21046;-72
2021/05/14 10:58:53;;;;;;;6.70;4.15;;;;;;;19.00;60.52;98853.91;1642571;87;21034;-70
2021/05/14 11:01:43;;;;;;;5.72;5.12;;;;;;;19.17;60.65;98850.34;1648398;85;21066;-69
2021/05/14 11:04:17;;;;;;;10.50;6.55;;;;;;;19.36;59.67;98849.94;1668649;85;21079;-68
2021/05/14 11:06:46;;;;;;;6.83;4.90;;;;;;;19.53;59.04;98847.14;1642261;85;21110;-71
2021/05/14 11:09:13;;;;;;;8.00;6.45;;;;;;;19.74;57.60;98847.19;1635352;85;21116;-70
2021/05/14 11:12:05;;;;;;;6.70;5.05;;;;;;;19.87;57.58;98844.77;1613859;88;21641;-68
2021/05/14 11:14:45;;;;;;;12.33;5.05;;;;;;;19.92;57.67;98839.92;1641525;87;20989;-69
2021/05/14 11:17:13;;;;;;;6.17;5.45;;;;;;;20.06;56.27;98845.11;1614125;88;21069;-68
2021/05/14 11:19:54;;;;;;;6.35;5.05;;;;;;;20.14;55.74;98842.91;1673994;85;21041;-69
2021/05/14 11:22:35;;;;;;;7.40;4.75;;;;;;;20.24;56.50;98834.28;1666345;85;21145;-71
2021/05/14 11:25:14;;;;;;;8.53;5.92;;;;;;;20.38;55.10;98828.59;1606965;88;21019;-69
2021/05/14 11:27:45;;;;;;;6.58;5.08;;;;;;;20.29;54.93;98831.34;1637195;86;21077;-68
2021/05/14 11:30:14;;;;;;;15.75;6.85;;;;;;;20.20;55.85;98829.27;1654109;86;21054;-67
2021/05/14 11:32:42;;;;;;;5.50;5.00;;;;;;;20.27;56.08;98831.47;1686558;85;20958;-69
2021/05/14 11:35:22;;;;;;;8.08;5.83;;;;;;;20.37;55.63;98826.42;1688173;84;21104;-69
2021/05/14 11:37:53;;;;;;;6.15;4.83;;;;;;;20.61;56.05;98818.08;1687906;84;21050;-71
2021/05/14 11:40:35;;;;;;;6.37;5.72;;;;;;;20.83;55.20;98817.67;1687275;84;21005;-70
2021/05/14 11:43:11;;;;;;;10.18;4.87;;;;;;;20.83;55.20;98817.67;1685691;84;21626;-69